Terminal Aerodrome Forecast
Issued by NWS

Home | Current Version | Previous Version | Text Only | Print | Product List | Glossary On
Versions: 1 2 3 4 5 6 7 8 9 10 11 12 13 14 15 16 17 18 19 20 21 22 23
000
FTUS43 KDMX 190543
TAFFOD
TAF
KFOD 190543Z 1906/2006 17005KT P6SM SCT021 OVC050
     FM190800 03010KT P6SM VCSH SCT008 OVC016
     FM191100 02011KT 5SM -FZDZ OVC007
     FM191800 02011KT P6SM OVC008=

USA.gov is the U.S. government's official web portal to all federal, state and local government web resources and services.